sensor_id;sensor_type;location;lat;lon;timestamp;temperature;humidity
9151;DHT22;4610;50.006;7.490;2022-11-03T00:02:06;5.40;99.90
9151;DHT22;4610;50.006;7.490;2022-11-03T00:04:33;5.30;99.90
9151;DHT22;4610;50.006;7.490;2022-11-03T00:06:59;5.30;99.90
9151;DHT22;4610;50.006;7.490;2022-11-03T00:09:26;5.20;99.90
9151;DHT22;4610;50.006;7.490;2022-11-03T00:11:53;5.00;99.90
9151;DHT22;4610;50.006;7.490;2022-11-03T00:14:21;4.80;99.90
9151;DHT22;4610;50.006;7.490;2022-11-03T00:16:48;4.80;99.90
9151;DHT22;4610;50.006;7.490;2022-11-03T00:19:14;5.00;99.90
9151;DHT22;4610;50.006;7.490;2022-11-03T00:21:42;5.00;99.90
9151;DHT22;4610;50.006;7.490;2022-11-03T00:24:09;5.00;99.90
9151;DHT22;4610;50.006;7.490;2022-11-03T00:26:36;5.00;99.90
9151;DHT22;4610;50.006;7.490;2022-11-03T00:29:06;4.80;99.90
9151;DHT22;4610;50.006;7.490;2022-11-03T00:31:36;4.80;99.90
9151;DHT22;4610;50.006;7.490;2022-11-03T00:34:04;4.80;99.90
9151;DHT22;4610;50.006;7.490;2022-11-03T00:36:32;4.90;99.90
9151;DHT22;4610;50.006;7.490;2022-11-03T00:39:00;5.00;99.90
9151;DHT22;4610;50.006;7.490;2022-11-03T00:41:27;5.10;99.90
9151;DHT22;4610;50.006;7.490;2022-11-03T00:43:54;5.10;99.90
9151;DHT22;4610;50.006;7.490;2022-11-03T00:46:22;5.20;99.90
9151;DHT22;4610;50.006;7.490;2022-11-03T00:48:51;5.20;99.90
9151;DHT22;4610;50.006;7.490;2022-11-03T00:51:19;5.20;99.90
9151;DHT22;4610;50.006;7.490;2022-11-03T00:53:48;5.20;99.90
9151;DHT22;4610;50.006;7.490;2022-11-03T00:56:17;5.20;99.90
9151;DHT22;4610;50.006;7.490;2022-11-03T00:58:44;5.10;99.90
9151;DHT22;4610;50.006;7.490;2022-11-03T01:01:13;5.10;99.90
9151;DHT22;4610;50.006;7.490;2022-11-03T01:03:43;5.10;99.90
9151;DHT22;4610;50.006;7.490;2022-11-03T01:06:32;5.20;99.90
9151;DHT22;4610;50.006;7.490;2022-11-03T01:09:17;5.20;99.90
9151;DHT22;4610;50.006;7.490;2022-11-03T01:11:51;5.20;99.90
9151;DHT22;4610;50.006;7.490;2022-11-03T01:14:18;5.30;99.90
9151;DHT22;4610;50.006;7.490;2022-11-03T01:16:45;5.40;99.90
9151;DHT22;4610;50.006;7.490;2022-11-03T01:19:12;5.50;99.90
9151;DHT22;4610;50.006;7.490;2022-11-03T01:21:40;5.50;99.90
9151;DHT22;4610;50.006;7.490;2022-11-03T01:24:07;5.50;99.90
9151;DHT22;4610;50.006;7.490;2022-11-03T01:26:33;5.50;99.90
9151;DHT22;4610;50.006;7.490;2022-11-03T01:29:00;5.60;99.90
9151;DHT22;4610;50.006;7.490;2022-11-03T01:31:27;5.50;99.90
9151;DHT22;4610;50.006;7.490;2022-11-03T01:33:55;5.50;99.90
9151;DHT22;4610;50.006;7.490;2022-11-03T01:36:23;5.40;99.90
9151;DHT22;4610;50.006;7.490;2022-11-03T01:38:52;5.30;99.90
9151;DHT22;4610;50.006;7.490;2022-11-03T01:41:20;5.30;99.90
9151;DHT22;4610;50.006;7.490;2022-11-03T01:43:50;5.30;99.90
9151;DHT22;4610;50.006;7.490;2022-11-03T01:46:19;5.30;99.90
9151;DHT22;4610;50.006;7.490;2022-11-03T01:48:50;5.40;99.90
9151;DHT22;4610;50.006;7.490;2022-11-03T01:51:20;5.30;99.90
9151;DHT22;4610;50.006;7.490;2022-11-03T01:53:52;5.20;99.90
9151;DHT22;4610;50.006;7.490;2022-11-03T01:56:21;5.20;99.90
9151;DHT22;4610;50.006;7.490;2022-11-03T01:58:50;5.20;99.90
9151;DHT22;4610;50.006;7.490;2022-11-03T02:01:19;5.30;99.90
9151;DHT22;4610;50.006;7.490;2022-11-03T02:03:50;5.50;99.90
9151;DHT22;4610;50.006;7.490;2022-11-03T02:06:19;5.70;99.90
9151;DHT22;4610;50.006;7.490;2022-11-03T02:08:51;5.90;99.90
9151;DHT22;4610;50.006;7.490;2022-11-03T02:11:21;6.00;99.90
9151;DHT22;4610;50.006;7.490;2022-11-03T02:14:10;6.10;99.90
9151;DHT22;4610;50.006;7.490;2022-11-03T02:16:37;6.20;99.90
9151;DHT22;4610;50.006;7.490;2022-11-03T02:19:07;6.10;99.90
9151;DHT22;4610;50.006;7.490;2022-11-03T02:21:41;6.00;99.90
9151;DHT22;4610;50.006;7.490;2022-11-03T02:24:13;6.00;99.90
9151;DHT22;4610;50.006;7.490;2022-11-03T02:26:47;6.00;99.90
9151;DHT22;4610;50.006;7.490;2022-11-03T02:29:16;6.00;99.90
9151;DHT22;4610;50.006;7.490;2022-11-03T02:31:46;6.00;99.90
9151;DHT22;4610;50.006;7.490;2022-11-03T02:34:18;6.00;99.90
9151;DHT22;4610;50.006;7.490;2022-11-03T02:36:48;6.00;99.90
9151;DHT22;4610;50.006;7.490;2022-11-03T02:39:19;6.00;99.90
9151;DHT22;4610;50.006;7.490;2022-11-03T02:41:51;6.00;99.90
9151;DHT22;4610;50.006;7.490;2022-11-03T02:44:19;6.00;99.90
9151;DHT22;4610;50.006;7.490;2022-11-03T02:46:49;6.00;99.90
9151;DHT22;4610;50.006;7.490;2022-11-03T02:49:18;5.90;99.90
9151;DHT22;4610;50.006;7.490;2022-11-03T02:51:44;5.90;99.90
9151;DHT22;4610;50.006;7.490;2022-11-03T02:54:15;5.90;99.90
9151;DHT22;4610;50.006;7.490;2022-11-03T02:56:51;5.90;99.90
9151;DHT22;4610;50.006;7.490;2022-11-03T02:59:21;5.90;99.90
9151;DHT22;4610;50.006;7.490;2022-11-03T03:01:51;6.00;99.90
9151;DHT22;4610;50.006;7.490;2022-11-03T03:04:25;6.00;99.90
9151;DHT22;4610;50.006;7.490;2022-11-03T03:06:56;6.00;99.90
9151;DHT22;4610;50.006;7.490;2022-11-03T03:09:26;6.00;99.90
9151;DHT22;4610;50.006;7.490;2022-11-03T03:11:58;6.00;99.90
9151;DHT22;4610;50.006;7.490;2022-11-03T03:14:28;5.90;99.90
9151;DHT22;4610;50.006;7.490;2022-11-03T03:16:59;5.90;99.90
9151;DHT22;4610;50.006;7.490;2022-11-03T03:19:30;5.90;99.90
9151;DHT22;4610;50.006;7.490;2022-11-03T03:22:08;5.90;99.90
9151;DHT22;4610;50.006;7.490;2022-11-03T03:24:42;5.90;99.90
9151;DHT22;4610;50.006;7.490;2022-11-03T03:27:13;5.80;99.90
9151;DHT22;4610;50.006;7.490;2022-11-03T03:29:45;5.80;99.90
9151;DHT22;4610;50.006;7.490;2022-11-03T03:32:15;5.70;99.90
9151;DHT22;4610;50.006;7.490;2022-11-03T03:34:45;5.70;99.90
9151;DHT22;4610;50.006;7.490;2022-11-03T03:37:15;5.70;99.90
9151;DHT22;4610;50.006;7.490;2022-11-03T03:39:45;5.60;99.90
9151;DHT22;4610;50.006;7.490;2022-11-03T03:42:15;5.50;99.90
9151;DHT22;4610;50.006;7.490;2022-11-03T03:44:44;5.50;99.90
9151;DHT22;4610;50.006;7.490;2022-11-03T03:47:15;5.50;99.90
9151;DHT22;4610;50.006;7.490;2022-11-03T03:49:43;5.60;99.90
9151;DHT22;4610;50.006;7.490;2022-11-03T03:52:10;5.60;99.90
9151;DHT22;4610;50.006;7.490;2022-11-03T03:54:37;5.70;99.90
9151;DHT22;4610;50.006;7.490;2022-11-03T03:57:04;5.70;99.90
9151;DHT22;4610;50.006;7.490;2022-11-03T03:59:33;5.70;99.90
9151;DHT22;4610;50.006;7.490;2022-11-03T04:02:00;5.70;99.90
9151;DHT22;4610;50.006;7.490;2022-11-03T04:04:27;5.50;99.90
9151;DHT22;4610;50.006;7.490;2022-11-03T04:06:54;5.60;99.90
9151;DHT22;4610;50.006;7.490;2022-11-03T04:09:34;5.60;99.90
9151;DHT22;4610;50.006;7.490;2022-11-03T04:12:01;5.60;99.90
9151;DHT22;4610;50.006;7.490;2022-11-03T04:14:47;5.50;99.90
9151;DHT22;4610;50.006;7.490;2022-11-03T04:17:31;5.40;99.90
9151;DHT22;4610;50.006;7.490;2022-11-03T04:20:15;5.30;99.90
9151;DHT22;4610;50.006;7.490;2022-11-03T04:22:59;5.10;99.90
9151;DHT22;4610;50.006;7.490;2022-11-03T04:25:26;5.10;99.90
9151;DHT22;4610;50.006;7.490;2022-11-03T04:27:53;5.10;99.90
9151;DHT22;4610;50.006;7.490;2022-11-03T04:30:22;5.10;99.90
9151;DHT22;4610;50.006;7.490;2022-11-03T04:32:51;5.00;99.90
9151;DHT22;4610;50.006;7.490;2022-11-03T04:35:21;5.00;99.90
9151;DHT22;4610;50.006;7.490;2022-11-03T04:37:50;5.00;99.90
9151;DHT22;4610;50.006;7.490;2022-11-03T04:40:19;5.10;99.90
9151;DHT22;4610;50.006;7.490;2022-11-03T04:42:46;5.00;99.90
9151;DHT22;4610;50.006;7.490;2022-11-03T04:45:27;5.10;99.90
9151;DHT22;4610;50.006;7.490;2022-11-03T04:47:58;5.10;99.90
9151;DHT22;4610;50.006;7.490;2022-11-03T04:50:25;5.10;99.90
9151;DHT22;4610;50.006;7.490;2022-11-03T04:52:54;5.10;99.90
9151;DHT22;4610;50.006;7.490;2022-11-03T04:55:22;5.10;99.90
9151;DHT22;4610;50.006;7.490;2022-11-03T04:57:53;5.10;99.90
9151;DHT22;4610;50.006;7.490;2022-11-03T05:00:20;5.10;99.90
9151;DHT22;4610;50.006;7.490;2022-11-03T05:02:50;5.10;99.90
9151;DHT22;4610;50.006;7.490;2022-11-03T05:05:19;5.00;99.90
9151;DHT22;4610;50.006;7.490;2022-11-03T05:07:48;5.00;99.90
9151;DHT22;4610;50.006;7.490;2022-11-03T05:10:17;5.00;99.90
9151;DHT22;4610;50.006;7.490;2022-11-03T05:12:45;5.10;99.90
9151;DHT22;4610;50.006;7.490;2022-11-03T05:15:27;5.10;99.90
9151;DHT22;4610;50.006;7.490;2022-11-03T05:17:56;5.10;99.90
9151;DHT22;4610;50.006;7.490;2022-11-03T05:20:29;5.20;99.90
9151;DHT22;4610;50.006;7.490;2022-11-03T05:22:57;5.30;99.90
9151;DHT22;4610;50.006;7.490;2022-11-03T05:25:36;5.40;99.90
9151;DHT22;4610;50.006;7.490;2022-11-03T05:28:12;5.30;99.90
9151;DHT22;4610;50.006;7.490;2022-11-03T05:30:41;5.20;99.90
9151;DHT22;4610;50.006;7.490;2022-11-03T05:33:24;5.20;99.90
9151;DHT22;4610;50.006;7.490;2022-11-03T05:35:52;5.00;99.90
9151;DHT22;4610;50.006;7.490;2022-11-03T05:38:20;4.90;99.90
9151;DHT22;4610;50.006;7.490;2022-11-03T05:40:50;4.90;99.90
9151;DHT22;4610;50.006;7.490;2022-11-03T05:43:18;5.00;99.90
9151;DHT22;4610;50.006;7.490;2022-11-03T05:45:45;5.10;99.90
9151;DHT22;4610;50.006;7.490;2022-11-03T05:48:19;5.20;99.90
9151;DHT22;4610;50.006;7.490;2022-11-03T05:50:48;5.30;99.90
9151;DHT22;4610;50.006;7.490;2022-11-03T05:53:26;5.30;99.90
9151;DHT22;4610;50.006;7.490;2022-11-03T05:55:53;5.10;99.90
9151;DHT22;4610;50.006;7.490;2022-11-03T05:58:23;5.10;99.90
9151;DHT22;4610;50.006;7.490;2022-11-03T06:00:51;5.00;99.90
9151;DHT22;4610;50.006;7.490;2022-11-03T06:03:23;5.00;99.90
9151;DHT22;4610;50.006;7.490;2022-11-03T06:05:50;4.90;99.90
9151;DHT22;4610;50.006;7.490;2022-11-03T06:08:19;4.80;99.90
9151;DHT22;4610;50.006;7.490;2022-11-03T06:10:49;4.80;99.90
9151;DHT22;4610;50.006;7.490;2022-11-03T06:13:19;4.80;99.90
9151;DHT22;4610;50.006;7.490;2022-11-03T06:15:51;4.70;99.90
9151;DHT22;4610;50.006;7.490;2022-11-03T06:18:21;4.70;99.90
9151;DHT22;4610;50.006;7.490;2022-11-03T06:20:50;4.80;99.90
9151;DHT22;4610;50.006;7.490;2022-11-03T06:23:19;4.90;99.90
9151;DHT22;4610;50.006;7.490;2022-11-03T06:25:47;5.00;99.90
9151;DHT22;4610;50.006;7.490;2022-11-03T06:28:17;5.00;99.90
9151;DHT22;4610;50.006;7.490;2022-11-03T06:30:46;5.00;99.90
9151;DHT22;4610;50.006;7.490;2022-11-03T06:33:15;5.10;99.90
9151;DHT22;4610;50.006;7.490;2022-11-03T06:35:47;5.10;99.90
9151;DHT22;4610;50.006;7.490;2022-11-03T06:38:17;5.20;99.90
9151;DHT22;4610;50.006;7.490;2022-11-03T06:40:46;5.20;99.90
9151;DHT22;4610;50.006;7.490;2022-11-03T06:43:21;5.20;99.90
9151;DHT22;4610;50.006;7.490;2022-11-03T06:45:51;5.30;99.90
9151;DHT22;4610;50.006;7.490;2022-11-03T06:48:24;5.80;99.90
9151;DHT22;4610;50.006;7.490;2022-11-03T06:50:53;5.60;99.90
9151;DHT22;4610;50.006;7.490;2022-11-03T06:53:23;5.40;99.90
9151;DHT22;4610;50.006;7.490;2022-11-03T06:55:50;5.30;99.90
9151;DHT22;4610;50.006;7.490;2022-11-03T06:58:27;5.30;99.90
9151;DHT22;4610;50.006;7.490;2022-11-03T07:00:57;5.40;99.90
9151;DHT22;4610;50.006;7.490;2022-11-03T07:03:25;5.50;99.90
9151;DHT22;4610;50.006;7.490;2022-11-03T07:05:58;5.60;99.90
9151;DHT22;4610;50.006;7.490;2022-11-03T07:08:27;5.80;99.90
9151;DHT22;4610;50.006;7.490;2022-11-03T07:11:01;5.80;99.90
9151;DHT22;4610;50.006;7.490;2022-11-03T07:13:30;5.80;99.90
9151;DHT22;4610;50.006;7.490;2022-11-03T07:15:58;5.80;99.90
9151;DHT22;4610;50.006;7.490;2022-11-03T07:18:28;5.70;99.90
9151;DHT22;4610;50.006;7.490;2022-11-03T07:20:58;5.70;99.90
9151;DHT22;4610;50.006;7.490;2022-11-03T07:23:28;5.70;99.90
9151;DHT22;4610;50.006;7.490;2022-11-03T07:25:58;5.70;99.90
9151;DHT22;4610;50.006;7.490;2022-11-03T07:28:29;5.60;99.90
9151;DHT22;4610;50.006;7.490;2022-11-03T07:30:58;5.60;99.90
9151;DHT22;4610;50.006;7.490;2022-11-03T07:33:27;5.60;99.90
9151;DHT22;4610;50.006;7.490;2022-11-03T07:35:57;5.70;99.90
9151;DHT22;4610;50.006;7.490;2022-11-03T07:38:25;5.80;99.90
9151;DHT22;4610;50.006;7.490;2022-11-03T07:40:56;5.90;99.90
9151;DHT22;4610;50.006;7.490;2022-11-03T07:43:27;6.10;99.90
9151;DHT22;4610;50.006;7.490;2022-11-03T07:45:54;6.30;99.90
9151;DHT22;4610;50.006;7.490;2022-11-03T07:48:24;6.80;99.90
9151;DHT22;4610;50.006;7.490;2022-11-03T07:50:53;7.30;99.90
9151;DHT22;4610;50.006;7.490;2022-11-03T07:53:27;7.90;99.90
9151;DHT22;4610;50.006;7.490;2022-11-03T07:55:55;8.80;99.90
9151;DHT22;4610;50.006;7.490;2022-11-03T07:58:24;9.80;99.90
9151;DHT22;4610;50.006;7.490;2022-11-03T08:00:55;11.00;99.90
9151;DHT22;4610;50.006;7.490;2022-11-03T08:03:40;12.30;99.90
9151;DHT22;4610;50.006;7.490;2022-11-03T08:06:08;13.20;99.90
9151;DHT22;4610;50.006;7.490;2022-11-03T08:08:36;14.00;99.90
9151;DHT22;4610;50.006;7.490;2022-11-03T08:11:03;14.30;99.90
9151;DHT22;4610;50.006;7.490;2022-11-03T08:13:30;14.70;99.90
9151;DHT22;4610;50.006;7.490;2022-11-03T08:15:57;14.70;99.90
9151;DHT22;4610;50.006;7.490;2022-11-03T08:18:24;15.00;99.90
9151;DHT22;4610;50.006;7.490;2022-11-03T08:20:50;15.70;99.90
9151;DHT22;4610;50.006;7.490;2022-11-03T08:23:17;16.30;99.90
9151;DHT22;4610;50.006;7.490;2022-11-03T08:25:45;16.80;99.90
9151;DHT22;4610;50.006;7.490;2022-11-03T08:28:13;17.10;99.90
9151;DHT22;4610;50.006;7.490;2022-11-03T08:30:40;17.10;99.90
9151;DHT22;4610;50.006;7.490;2022-11-03T08:33:06;16.80;99.90
9151;DHT22;4610;50.006;7.490;2022-11-03T08:35:33;16.30;99.90
9151;DHT22;4610;50.006;7.490;2022-11-03T08:38:00;15.50;99.90
9151;DHT22;4610;50.006;7.490;2022-11-03T08:40:26;15.00;99.90
9151;DHT22;4610;50.006;7.490;2022-11-03T08:42:55;14.40;99.90
9151;DHT22;4610;50.006;7.490;2022-11-03T08:45:21;13.70;99.90
9151;DHT22;4610;50.006;7.490;2022-11-03T08:47:48;13.20;99.90
9151;DHT22;4610;50.006;7.490;2022-11-03T08:50:15;12.90;99.90
9151;DHT22;4610;50.006;7.490;2022-11-03T08:52:42;12.70;99.90
9151;DHT22;4610;50.006;7.490;2022-11-03T08:55:08;12.50;99.90
9151;DHT22;4610;50.006;7.490;2022-11-03T08:57:35;12.20;99.90
9151;DHT22;4610;50.006;7.490;2022-11-03T09:00:05;12.00;99.90
9151;DHT22;4610;50.006;7.490;2022-11-03T09:02:32;11.90;99.90
9151;DHT22;4610;50.006;7.490;2022-11-03T09:04:59;11.80;99.90
9151;DHT22;4610;50.006;7.490;2022-11-03T09:07:26;11.80;99.90
9151;DHT22;4610;50.006;7.490;2022-11-03T09:09:53;11.70;99.90
9151;DHT22;4610;50.006;7.490;2022-11-03T09:12:20;11.70;99.90
9151;DHT22;4610;50.006;7.490;2022-11-03T09:14:47;11.80;99.90
9151;DHT22;4610;50.006;7.490;2022-11-03T09:17:15;12.00;99.90
9151;DHT22;4610;50.006;7.490;2022-11-03T09:19:42;12.50;99.90
9151;DHT22;4610;50.006;7.490;2022-11-03T09:22:08;12.80;99.90
9151;DHT22;4610;50.006;7.490;2022-11-03T09:24:35;12.80;99.90
9151;DHT22;4610;50.006;7.490;2022-11-03T09:27:02;12.70;99.90
9151;DHT22;4610;50.006;7.490;2022-11-03T09:29:29;12.60;99.90
9151;DHT22;4610;50.006;7.490;2022-11-03T09:31:56;12.50;99.90
9151;DHT22;4610;50.006;7.490;2022-11-03T09:34:25;12.40;99.90
9151;DHT22;4610;50.006;7.490;2022-11-03T09:36:52;12.50;99.90
9151;DHT22;4610;50.006;7.490;2022-11-03T09:39:19;12.80;99.90
9151;DHT22;4610;50.006;7.490;2022-11-03T09:41:45;12.90;99.90
9151;DHT22;4610;50.006;7.490;2022-11-03T09:44:12;13.00;99.90
9151;DHT22;4610;50.006;7.490;2022-11-03T09:46:39;13.00;99.90
9151;DHT22;4610;50.006;7.490;2022-11-03T09:49:06;13.00;99.90
9151;DHT22;4610;50.006;7.490;2022-11-03T09:51:35;12.90;99.90
9151;DHT22;4610;50.006;7.490;2022-11-03T09:54:03;12.70;99.90
9151;DHT22;4610;50.006;7.490;2022-11-03T09:56:30;12.80;99.90
9151;DHT22;4610;50.006;7.490;2022-11-03T09:58:59;12.80;99.90
9151;DHT22;4610;50.006;7.490;2022-11-03T10:01:26;12.60;99.90
9151;DHT22;4610;50.006;7.490;2022-11-03T10:03:58;12.40;99.90
9151;DHT22;4610;50.006;7.490;2022-11-03T10:06:25;12.30;99.90
9151;DHT22;4610;50.006;7.490;2022-11-03T10:08:53;12.20;99.90
9151;DHT22;4610;50.006;7.490;2022-11-03T10:11:20;12.10;99.90
9151;DHT22;4610;50.006;7.490;2022-11-03T10:13:50;12.10;99.90
9151;DHT22;4610;50.006;7.490;2022-11-03T10:16:21;12.10;99.90
9151;DHT22;4610;50.006;7.490;2022-11-03T10:18:48;12.00;99.90
9151;DHT22;4610;50.006;7.490;2022-11-03T10:21:17;12.00;99.90
9151;DHT22;4610;50.006;7.490;2022-11-03T10:23:44;11.90;99.90
9151;DHT22;4610;50.006;7.490;2022-11-03T10:26:14;11.90;99.90
9151;DHT22;4610;50.006;7.490;2022-11-03T10:28:57;11.90;99.90
9151;DHT22;4610;50.006;7.490;2022-11-03T10:31:31;12.00;99.90
9151;DHT22;4610;50.006;7.490;2022-11-03T10:33:58;11.90;99.90
9151;DHT22;4610;50.006;7.490;2022-11-03T10:36:27;11.90;99.90
9151;DHT22;4610;50.006;7.490;2022-11-03T10:38:54;11.80;99.90
9151;DHT22;4610;50.006;7.490;2022-11-03T10:41:24;11.80;99.90
9151;DHT22;4610;50.006;7.490;2022-11-03T10:44:02;11.80;99.90
9151;DHT22;4610;50.006;7.490;2022-11-03T10:46:30;11.90;99.90
9151;DHT22;4610;50.006;7.490;2022-11-03T10:49:02;11.90;99.90
9151;DHT22;4610;50.006;7.490;2022-11-03T10:51:31;11.90;99.90
9151;DHT22;4610;50.006;7.490;2022-11-03T10:53:57;11.90;99.90
9151;DHT22;4610;50.006;7.490;2022-11-03T10:56:26;11.90;99.90
9151;DHT22;4610;50.006;7.490;2022-11-03T10:58:53;12.00;99.90
9151;DHT22;4610;50.006;7.490;2022-11-03T11:01:20;11.90;99.90
9151;DHT22;4610;50.006;7.490;2022-11-03T11:03:47;11.90;99.90
9151;DHT22;4610;50.006;7.490;2022-11-03T11:06:23;11.90;99.90
9151;DHT22;4610;50.006;7.490;2022-11-03T11:08:52;11.90;99.90
9151;DHT22;4610;50.006;7.490;2022-11-03T11:11:22;11.70;99.90
9151;DHT22;4610;50.006;7.490;2022-11-03T11:14:20;11.70;99.90
9151;DHT22;4610;50.006;7.490;2022-11-03T11:16:49;11.60;99.90
9151;DHT22;4610;50.006;7.490;2022-11-03T11:19:16;11.50;99.90
9151;DHT22;4610;50.006;7.490;2022-11-03T11:22:00;11.50;99.90
9151;DHT22;4610;50.006;7.490;2022-11-03T11:24:59;11.40;99.90
9151;DHT22;4610;50.006;7.490;2022-11-03T11:40:11;11.20;99.90
9151;DHT22;4610;50.006;7.490;2022-11-03T11:48:42;11.10;99.90
9151;DHT22;4610;50.006;7.490;2022-11-03T11:51:10;11.10;99.90
9151;DHT22;4610;50.006;7.490;2022-11-03T11:53:39;11.10;99.90
9151;DHT22;4610;50.006;7.490;2022-11-03T11:56:10;11.10;99.90
9151;DHT22;4610;50.006;7.490;2022-11-03T11:58:41;11.10;99.90
9151;DHT22;4610;50.006;7.490;2022-11-03T12:01:22;11.10;99.90
9151;DHT22;4610;50.006;7.490;2022-11-03T12:03:51;11.10;99.90
9151;DHT22;4610;50.006;7.490;2022-11-03T12:06:31;11.20;99.90
9151;DHT22;4610;50.006;7.490;2022-11-03T12:09:03;11.20;99.90
9151;DHT22;4610;50.006;7.490;2022-11-03T12:11:41;11.30;99.90
9151;DHT22;4610;50.006;7.490;2022-11-03T12:14:21;11.40;99.90
9151;DHT22;4610;50.006;7.490;2022-11-03T12:16:48;11.50;99.90
9151;DHT22;4610;50.006;7.490;2022-11-03T12:19:35;11.60;99.90
9151;DHT22;4610;50.006;7.490;2022-11-03T12:22:03;11.70;99.90
9151;DHT22;4610;50.006;7.490;2022-11-03T12:24:49;11.70;99.90
9151;DHT22;4610;50.006;7.490;2022-11-03T12:30:10;11.70;99.90
9151;DHT22;4610;50.006;7.490;2022-11-03T12:32:37;11.80;99.90
9151;DHT22;4610;50.006;7.490;2022-11-03T12:35:06;11.90;99.90
9151;DHT22;4610;50.006;7.490;2022-11-03T12:37:33;11.90;99.90
9151;DHT22;4610;50.006;7.490;2022-11-03T12:39:59;11.90;99.90
9151;DHT22;4610;50.006;7.490;2022-11-03T12:42:28;11.90;99.90
9151;DHT22;4610;50.006;7.490;2022-11-03T12:44:54;11.90;99.90
9151;DHT22;4610;50.006;7.490;2022-11-03T12:47:21;11.90;99.90
9151;DHT22;4610;50.006;7.490;2022-11-03T12:49:48;11.90;99.90
9151;DHT22;4610;50.006;7.490;2022-11-03T12:52:14;11.90;99.90
9151;DHT22;4610;50.006;7.490;2022-11-03T12:54:41;11.90;99.90
9151;DHT22;4610;50.006;7.490;2022-11-03T12:57:08;11.90;99.90
9151;DHT22;4610;50.006;7.490;2022-11-03T12:59:37;11.80;99.90
9151;DHT22;4610;50.006;7.490;2022-11-03T13:02:03;11.80;99.90
9151;DHT22;4610;50.006;7.490;2022-11-03T13:04:30;11.80;99.90
9151;DHT22;4610;50.006;7.490;2022-11-03T13:06:57;11.70;99.90
9151;DHT22;4610;50.006;7.490;2022-11-03T13:09:24;11.70;99.90
9151;DHT22;4610;50.006;7.490;2022-11-03T13:11:50;11.70;99.90
9151;DHT22;4610;50.006;7.490;2022-11-03T13:14:36;11.70;99.90
9151;DHT22;4610;50.006;7.490;2022-11-03T13:17:04;11.70;99.90
9151;DHT22;4610;50.006;7.490;2022-11-03T13:19:31;11.70;99.90
9151;DHT22;4610;50.006;7.490;2022-11-03T13:21:58;11.60;99.90
9151;DHT22;4610;50.006;7.490;2022-11-03T13:24:25;11.60;99.90
9151;DHT22;4610;50.006;7.490;2022-11-03T13:26:52;11.60;99.90
9151;DHT22;4610;50.006;7.490;2022-11-03T13:29:18;11.60;99.90
9151;DHT22;4610;50.006;7.490;2022-11-03T13:31:46;11.60;99.90
9151;DHT22;4610;50.006;7.490;2022-11-03T13:34:13;11.60;99.90
9151;DHT22;4610;50.006;7.490;2022-11-03T13:36:40;11.60;99.90
9151;DHT22;4610;50.006;7.490;2022-11-03T13:39:07;11.60;99.90
9151;DHT22;4610;50.006;7.490;2022-11-03T13:41:33;11.60;99.90
9151;DHT22;4610;50.006;7.490;2022-11-03T13:44:00;11.60;99.90
9151;DHT22;4610;50.006;7.490;2022-11-03T13:46:27;11.70;99.90
9151;DHT22;4610;50.006;7.490;2022-11-03T13:48:55;11.70;99.90
9151;DHT22;4610;50.006;7.490;2022-11-03T13:51:21;11.80;99.90
9151;DHT22;4610;50.006;7.490;2022-11-03T13:53:48;11.90;99.90
9151;DHT22;4610;50.006;7.490;2022-11-03T13:56:15;11.90;99.90
9151;DHT22;4610;50.006;7.490;2022-11-03T13:58:42;12.00;99.90
9151;DHT22;4610;50.006;7.490;2022-11-03T14:01:09;12.10;99.90
9151;DHT22;4610;50.006;7.490;2022-11-03T14:03:35;12.20;99.90
9151;DHT22;4610;50.006;7.490;2022-11-03T14:06:04;12.30;99.90
9151;DHT22;4610;50.006;7.490;2022-11-03T14:08:31;12.40;99.90
9151;DHT22;4610;50.006;7.490;2022-11-03T14:10:58;12.40;99.90
9151;DHT22;4610;50.006;7.490;2022-11-03T14:13:44;12.50;99.90
9151;DHT22;4610;50.006;7.490;2022-11-03T14:16:10;12.40;99.90
9151;DHT22;4610;50.006;7.490;2022-11-03T14:18:37;12.30;99.90
9151;DHT22;4610;50.006;7.490;2022-11-03T14:21:05;12.20;99.90
9151;DHT22;4610;50.006;7.490;2022-11-03T14:23:32;12.20;99.90
9151;DHT22;4610;50.006;7.490;2022-11-03T14:25:58;12.20;99.90
9151;DHT22;4610;50.006;7.490;2022-11-03T14:28:25;12.10;99.90
9151;DHT22;4610;50.006;7.490;2022-11-03T14:30:52;12.10;99.90
9151;DHT22;4610;50.006;7.490;2022-11-03T14:33:20;12.10;99.90
9151;DHT22;4610;50.006;7.490;2022-11-03T14:35:47;12.00;99.90
9151;DHT22;4610;50.006;7.490;2022-11-03T14:38:15;11.90;99.90
9151;DHT22;4610;50.006;7.490;2022-11-03T14:40:42;11.80;99.90
9151;DHT22;4610;50.006;7.490;2022-11-03T14:43:26;11.70;99.90
9151;DHT22;4610;50.006;7.490;2022-11-03T14:45:54;11.50;99.90
9151;DHT22;4610;50.006;7.490;2022-11-03T14:48:21;11.70;99.90
9151;DHT22;4610;50.006;7.490;2022-11-03T14:50:47;11.70;99.90
9151;DHT22;4610;50.006;7.490;2022-11-03T14:53:15;11.60;99.90
9151;DHT22;4610;50.006;7.490;2022-11-03T14:55:42;11.50;99.90
9151;DHT22;4610;50.006;7.490;2022-11-03T14:58:09;11.50;99.90
9151;DHT22;4610;50.006;7.490;2022-11-03T15:00:36;11.40;99.90
9151;DHT22;4610;50.006;7.490;2022-11-03T15:03:03;11.30;99.90
9151;DHT22;4610;50.006;7.490;2022-11-03T15:05:29;11.30;99.90
9151;DHT22;4610;50.006;7.490;2022-11-03T15:08:17;11.20;99.90
9151;DHT22;4610;50.006;7.490;2022-11-03T15:10:44;11.10;99.90
9151;DHT22;4610;50.006;7.490;2022-11-03T15:13:11;11.00;99.90
9151;DHT22;4610;50.006;7.490;2022-11-03T15:15:38;10.90;99.90
9151;DHT22;4610;50.006;7.490;2022-11-03T15:18:06;10.90;99.90
9151;DHT22;4610;50.006;7.490;2022-11-03T15:20:33;11.30;99.90
9151;DHT22;4610;50.006;7.490;2022-11-03T15:23:00;11.20;99.90
9151;DHT22;4610;50.006;7.490;2022-11-03T15:25:29;11.10;99.90
9151;DHT22;4610;50.006;7.490;2022-11-03T15:27:56;11.00;99.90
9151;DHT22;4610;50.006;7.490;2022-11-03T15:30:23;10.90;99.90
9151;DHT22;4610;50.006;7.490;2022-11-03T15:32:50;10.90;99.90
9151;DHT22;4610;50.006;7.490;2022-11-03T15:35:16;10.80;99.90
9151;DHT22;4610;50.006;7.490;2022-11-03T15:37:44;10.80;99.90
9151;DHT22;4610;50.006;7.490;2022-11-03T15:40:13;10.80;99.90
9151;DHT22;4610;50.006;7.490;2022-11-03T15:42:41;11.20;99.90
9151;DHT22;4610;50.006;7.490;2022-11-03T15:45:11;11.20;99.90
9151;DHT22;4610;50.006;7.490;2022-11-03T15:47:38;11.10;99.90
9151;DHT22;4610;50.006;7.490;2022-11-03T15:50:06;11.00;99.90
9151;DHT22;4610;50.006;7.490;2022-11-03T15:52:33;10.90;99.90
9151;DHT22;4610;50.006;7.490;2022-11-03T15:55:00;10.80;99.90
9151;DHT22;4610;50.006;7.490;2022-11-03T15:57:26;10.80;99.90
9151;DHT22;4610;50.006;7.490;2022-11-03T15:59:55;10.80;99.90
9151;DHT22;4610;50.006;7.490;2022-11-03T16:02:21;10.80;99.90
9151;DHT22;4610;50.006;7.490;2022-11-03T16:04:48;10.80;99.90
9151;DHT22;4610;50.006;7.490;2022-11-03T16:07:15;10.80;99.90
9151;DHT22;4610;50.006;7.490;2022-11-03T16:09:42;10.80;99.90
9151;DHT22;4610;50.006;7.490;2022-11-03T16:12:09;10.80;99.90
9151;DHT22;4610;50.006;7.490;2022-11-03T16:14:36;10.80;99.90
9151;DHT22;4610;50.006;7.490;2022-11-03T16:17:04;10.70;99.90
9151;DHT22;4610;50.006;7.490;2022-11-03T16:19:31;10.70;99.90
9151;DHT22;4610;50.006;7.490;2022-11-03T16:21:58;10.70;99.90
9151;DHT22;4610;50.006;7.490;2022-11-03T16:24:25;11.20;99.90
9151;DHT22;4610;50.006;7.490;2022-11-03T16:26:51;11.70;99.90
9151;DHT22;4610;50.006;7.490;2022-11-03T16:29:18;11.80;99.90
9151;DHT22;4610;50.006;7.490;2022-11-03T16:31:45;11.50;99.90
9151;DHT22;4610;50.006;7.490;2022-11-03T16:34:15;11.30;99.90
9151;DHT22;4610;50.006;7.490;2022-11-03T16:36:42;11.10;99.90
9151;DHT22;4610;50.006;7.490;2022-11-03T16:39:09;11.00;99.90
9151;DHT22;4610;50.006;7.490;2022-11-03T16:41:36;10.90;99.90
9151;DHT22;4610;50.006;7.490;2022-11-03T16:44:03;10.80;99.90
9151;DHT22;4610;50.006;7.490;2022-11-03T16:46:30;10.70;99.90